Time;durP1;ratioP1;P1;durP2;ratioP2;P2;SDS_P1;SDS_P2;PMS_P1;PMS_P2;Temp;Humidity;BMP_temperature;BMP_pressure;BME280_temperature;BME280_humidity;BME280_pressure;Samples;Min_cycle;Max_cycle;Signal;HPM_P1;HPM_P2
2022/08/24 00:00:21;;;;;;;60.50;36.63;;;;;;;20.14;92.14;100489.43;2057776;86;29469;-66
2022/08/24 00:03:25;;;;;;;56.48;36.15;;;;;;;20.15;92.22;100493.88;2047939;85;27722;-66
2022/08/24 00:06:27;;;;;;;52.62;35.70;;;;;;;20.16;92.22;100490.16;2082239;85;28694;-66
2022/08/24 00:09:31;;;;;;;52.55;34.50;;;;;;;20.17;92.23;100487.81;2082203;85;30700;-65
2022/08/24 00:12:32;;;;;;;55.78;34.60;;;;;;;20.17;92.22;100483.73;2080659;85;33020;-67
2022/08/24 00:15:34;;;;;;;54.53;35.13;;;;;;;20.17;92.24;100494.13;2072579;85;30105;-66
2022/08/24 00:18:37;;;;;;;51.18;35.58;;;;;;;20.18;92.19;100501.78;2072724;85;27670;-66
2022/08/24 00:21:39;;;;;;;56.98;33.70;;;;;;;20.19;92.22;100496.70;2072644;85;28600;-66
2022/08/24 00:24:41;;;;;;;49.88;33.28;;;;;;;20.19;92.24;100492.62;2101863;84;31081;-66
2022/08/24 00:27:43;;;;;;;51.08;33.98;;;;;;;20.20;92.23;100492.98;2112481;84;33756;-65
2022/08/24 00:30:44;;;;;;;47.38;35.23;;;;;;;20.21;92.23;100494.72;2112857;84;29383;-65
2022/08/24 00:33:46;;;;;;;49.90;33.55;;;;;;;20.21;92.23;100487.03;2095663;84;27677;-65
2022/08/24 00:36:48;;;;;;;44.77;31.60;;;;;;;20.22;92.26;100490.12;2072464;85;29669;-65
2022/08/24 00:39:50;;;;;;;54.23;33.20;;;;;;;20.23;92.23;100478.24;2072448;85;31827;-65
2022/08/24 00:42:53;;;;;;;47.70;33.15;;;;;;;20.22;92.17;100474.67;2076984;84;33057;-66
2022/08/24 00:46:15;;;;;;;48.73;34.48;;;;;;;20.23;92.19;100476.41;2112623;84;30315;-66
2022/08/24 00:49:44;;;;;;;50.78;33.28;;;;;;;20.23;92.20;100472.80;2112682;84;27675;-65
2022/08/24 00:52:50;;;;;;;63.55;34.38;;;;;;;20.23;92.26;100475.04;2110112;84;28769;-66
2022/08/24 00:55:57;;;;;;;58.40;32.70;;;;;;;20.22;92.28;100466.52;2072327;85;31977;-66
2022/08/24 00:59:13;;;;;;;51.23;35.30;;;;;;;20.23;92.29;100464.64;2072529;85;33682;-67
2022/08/24 01:02:21;;;;;;;48.30;33.33;;;;;;;20.23;92.25;100470.96;2072673;85;29831;-66
2022/08/24 01:05:23;;;;;;;49.85;33.05;;;;;;;20.23;92.32;100468.23;2104529;83;27720;-66
2022/08/24 01:08:25;;;;;;;50.17;32.58;;;;;;;20.23;92.26;100461.92;2102432;84;28775;-66
2022/08/24 01:11:29;;;;;;;56.48;35.73;;;;;;;20.24;92.32;100455.48;2102685;84;31866;-66
2022/08/24 01:14:30;;;;;;;48.80;33.50;;;;;;;20.24;92.36;100458.20;2076625;84;33054;-66
2022/08/24 01:20:57;;;;;;;59.23;35.83;;;;;;;20.26;92.38;100458.94;2061259;86;27614;-65
2022/08/24 01:24:05;;;;;;;54.35;34.35;;;;;;;20.25;92.33;100457.20;2079646;84;30620;-66
2022/08/24 01:27:09;;;;;;;55.98;36.85;;;;;;;20.25;92.35;100452.65;2102164;84;31238;-65
2022/08/24 01:30:14;;;;;;;58.58;36.33;;;;;;;20.26;92.34;100448.94;2102904;84;33079;-66
2022/08/24 01:33:25;;;;;;;73.90;39.92;;;;;;;20.25;92.35;100450.41;2095013;84;30120;-66
2022/08/24 01:36:44;;;;;;;65.00;38.73;;;;;;;20.24;92.35;100450.05;2060504;86;27738;-66
2022/08/24 01:39:48;;;;;;;57.98;39.30;;;;;;;20.23;92.38;100453.28;2061458;86;29471;-66
2022/08/24 01:42:52;;;;;;;58.75;38.17;;;;;;;20.23;92.43;100447.84;2063125;84;31837;-66
2022/08/24 01:45:53;;;;;;;63.68;39.38;;;;;;;20.22;92.41;100447.95;2102774;84;33842;-66
2022/08/24 01:48:57;;;;;;;70.10;40.40;;;;;;;20.22;92.41;100453.39;2102816;84;29333;-65
2022/08/24 01:51:59;;;;;;;62.83;38.63;;;;;;;20.21;92.46;100457.11;2100449;84;27764;-66
2022/08/24 01:55:00;;;;;;;65.35;39.30;;;;;;;20.19;92.47;100454.53;2102711;84;28823;-66
2022/08/24 01:58:04;;;;;;;60.88;38.80;;;;;;;20.18;92.50;100456.41;2102666;84;31043;-66
2022/08/24 02:01:09;;;;;;;62.10;38.28;;;;;;;20.19;92.57;100459.46;2100542;84;33902;-65
2022/08/24 02:04:11;;;;;;;55.23;36.80;;;;;;;20.20;92.61;100464.42;2102776;83;29340;-66
2022/08/24 02:07:15;;;;;;;59.95;38.42;;;;;;;20.21;92.62;100469.35;2102457;84;28211;-65
2022/08/24 02:10:18;;;;;;;65.87;40.00;;;;;;;20.21;92.66;100470.23;2101642;84;29316;-65
2022/08/24 02:13:20;;;;;;;58.78;37.73;;;;;;;20.22;92.64;100472.44;2061307;86;31973;-65
2022/08/24 02:16:22;;;;;;;58.75;37.25;;;;;;;20.22;92.58;100475.16;2060954;86;33013;-66
2022/08/24 02:19:25;;;;;;;58.13;37.25;;;;;;;20.23;92.64;100478.24;2061357;86;29350;-65
2022/08/24 02:22:27;;;;;;;59.65;36.55;;;;;;;20.23;92.66;100484.56;2092131;84;27689;-65
2022/08/24 02:25:31;;;;;;;53.28;36.70;;;;;;;20.23;92.64;100490.00;2102812;84;29467;-65
2022/08/24 02:28:33;;;;;;;60.05;36.28;;;;;;;20.24;92.69;100496.29;2102763;84;31043;-65
2022/08/24 02:31:35;;;;;;;55.00;36.00;;;;;;;20.24;92.73;100492.21;2084450;84;32999;-66
2022/08/24 02:34:37;;;;;;;58.13;36.58;;;;;;;20.25;92.71;100498.90;2061591;86;29374;-65
2022/08/24 02:37:39;;;;;;;51.37;37.10;;;;;;;20.25;92.78;100492.58;2061437;86;27712;-66
2022/08/24 02:40:40;;;;;;;53.58;35.88;;;;;;;20.25;92.72;100496.17;2067174;84;29060;-66
2022/08/24 02:43:42;;;;;;;58.02;35.65;;;;;;;20.26;92.74;100501.11;2102680;84;45472;-65
2022/08/24 02:46:44;;;;;;;58.80;36.75;;;;;;;20.26;92.73;100497.91;2102433;84;33017;-65
2022/08/24 02:49:45;;;;;;;55.55;35.65;;;;;;;20.26;92.75;100495.66;2102736;84;29328;-65
2022/08/24 02:52:46;;;;;;;46.08;35.25;;;;;;;20.26;92.73;100503.83;2068486;84;27690;-65
2022/08/24 02:55:48;;;;;;;52.38;35.70;;;;;;;20.26;92.75;100501.11;2061457;86;29589;-65
2022/08/24 02:58:49;;;;;;;58.73;35.30;;;;;;;20.26;92.76;100499.75;2061658;86;32033;-65
2022/08/24 03:01:51;;;;;;;47.20;36.25;;;;;;;20.25;92.77;100498.90;2083107;84;33708;-65
2022/08/24 03:04:53;;;;;;;50.60;34.58;;;;;;;20.24;92.75;100497.66;2102393;84;28714;-65
2022/08/24 03:07:56;;;;;;;53.17;35.40;;;;;;;20.25;92.83;100498.90;2100175;84;27657;-66
2022/08/24 03:10:59;;;;;;;55.90;35.48;;;;;;;20.26;92.86;100497.02;2102677;84;28649;-65
2022/08/24 03:14:00;;;;;;;54.77;35.23;;;;;;;20.24;92.86;100502.61;2082982;84;31097;-66
2022/08/24 03:17:02;;;;;;;53.50;34.25;;;;;;;20.26;92.87;100503.83;2102787;84;32924;-65
2022/08/24 03:20:08;;;;;;;49.60;32.20;;;;;;;20.25;92.90;100504.81;2063230;84;29366;-65
2022/08/24 03:23:10;;;;;;;48.58;33.28;;;;;;;20.25;92.87;100506.18;2061472;86;27744;-66
2022/08/24 03:26:11;;;;;;;46.02;33.20;;;;;;;20.24;92.85;100510.77;2061268;86;28699;-65
2022/08/24 03:29:14;;;;;;;43.83;30.97;;;;;;;20.23;92.81;100519.92;2088649;84;31028;-65
2022/08/24 03:32:15;;;;;;;44.13;30.90;;;;;;;20.23;92.80;100521.77;2102649;84;32946;-65
2022/08/24 03:35:18;;;;;;;43.13;32.05;;;;;;;20.22;92.87;100520.05;2103147;84;29901;-64
2022/08/24 03:38:20;;;;;;;52.58;31.93;;;;;;;20.21;92.82;100523.28;2087838;84;27626;-65
2022/08/24 03:41:21;;;;;;;42.80;30.97;;;;;;;20.22;92.85;100535.00;2061403;86;28832;-65
2022/08/24 03:44:24;;;;;;;46.95;33.38;;;;;;;20.21;92.87;100533.28;2061305;86;31007;-66
2022/08/24 03:47:25;;;;;;;42.93;31.85;;;;;;;20.21;92.83;100537.36;2063231;84;33071;-66
2022/08/24 03:50:27;;;;;;;42.40;33.13;;;;;;;20.21;92.85;100545.52;2102591;84;28795;-66
2022/08/24 03:53:28;;;;;;;43.98;32.67;;;;;;;20.21;92.92;100542.80;2102716;84;27697;-66
2022/08/24 03:56:30;;;;;;;42.40;31.48;;;;;;;20.20;92.94;100543.31;2102710;84;29420;-66
2022/08/24 03:59:31;;;;;;;44.58;31.77;;;;;;;20.22;92.97;100541.80;2072352;84;31001;-66
2022/08/24 04:02:32;;;;;;;45.43;31.17;;;;;;;20.21;93.00;100545.04;2061201;86;33010;-66
2022/08/24 04:05:33;;;;;;;43.98;31.23;;;;;;;20.21;92.98;100541.44;2060236;85;30159;-65
2022/08/24 04:08:36;;;;;;;44.63;31.30;;;;;;;20.23;93.04;100547.61;2050882;85;27682;-66
2022/08/24 04:11:37;;;;;;;41.90;30.90;;;;;;;20.23;93.05;100548.50;2075016;85;29598;-65
2022/08/24 04:14:39;;;;;;;46.90;33.15;;;;;;;20.24;93.04;100543.42;2075147;85;31032;-66
2022/08/24 04:17:40;;;;;;;49.33;31.80;;;;;;;20.25;93.00;100548.34;2071387;85;32993;-66
2022/08/24 04:20:42;;;;;;;48.40;32.35;;;;;;;20.26;93.07;100549.59;2058004;84;30088;-66
2022/08/24 04:23:43;;;;;;;42.03;28.90;;;;;;;20.27;93.08;100543.64;2034626;87;28208;-65
2022/08/24 04:26:45;;;;;;;43.52;31.40;;;;;;;20.28;93.04;100547.58;2057784;86;29462;-66
2022/08/24 04:29:46;;;;;;;41.65;30.75;;;;;;;20.29;93.06;100547.94;2066362;85;31005;-65
2022/08/24 04:32:48;;;;;;;36.68;29.60;;;;;;;20.31;93.04;100554.63;2074974;85;33697;-66
2022/08/24 04:35:49;;;;;;;43.58;30.08;;;;;;;20.31;93.02;100554.11;2075245;85;29326;-66
2022/08/24 04:38:50;;;;;;;50.15;31.57;;;;;;;20.32;93.04;100554.99;2055938;85;27694;-66
2022/08/24 04:41:52;;;;;;;36.50;28.38;;;;;;;20.33;93.00;100554.00;2057781;86;29321;-66
2022/08/24 04:44:54;;;;;;;37.93;28.50;;;;;;;20.34;93.06;100553.01;2034499;87;31006;-66
2022/08/24 04:47:55;;;;;;;35.33;28.35;;;;;;;20.38;93.04;100560.39;2064015;84;33164;-67
2022/08/24 04:51:03;;;;;;;40.55;29.42;;;;;;;20.38;93.09;100560.39;2102188;84;29358;-66
2022/08/24 04:54:06;;;;;;;38.78;30.08;;;;;;;20.40;93.12;100557.89;2102111;84;27637;-66
2022/08/24 04:57:08;;;;;;;43.83;29.65;;;;;;;20.42;93.05;100559.98;2102116;84;28792;-66
2022/08/24 05:00:10;;;;;;;41.58;30.40;;;;;;;20.43;93.08;100558.99;2063237;84;32016;-67
2022/08/24 05:03:12;;;;;;;40.75;28.83;;;;;;;20.46;93.10;100564.66;2034647;87;32970;-67
2022/08/24 05:06:14;;;;;;;41.75;29.57;;;;;;;20.47;93.11;100563.17;2061106;85;29320;-67
2022/08/24 05:09:15;;;;;;;39.98;28.75;;;;;;;20.50;93.17;100555.23;2093607;84;27658;-67
2022/08/24 05:12:19;;;;;;;41.95;29.75;;;;;;;20.53;93.17;100558.17;2114920;84;28712;-67
2022/08/24 05:15:20;;;;;;;40.83;28.55;;;;;;;20.55;93.16;100552.98;2114894;84;31171;-67
2022/08/24 05:18:22;;;;;;;43.92;30.75;;;;;;;20.58;93.22;100556.80;2102056;84;33659;-67
2022/08/24 05:21:24;;;;;;;42.90;30.72;;;;;;;20.63;93.31;100562.67;2066749;86;29344;-67
2022/08/24 05:24:26;;;;;;;45.58;29.72;;;;;;;20.70;93.36;100563.51;2111102;84;27622;-65
2022/08/24 05:27:27;;;;;;;43.83;30.62;;;;;;;20.77;93.38;100557.89;2114979;84;28727;-67
2022/08/24 05:30:29;;;;;;;51.37;29.50;;;;;;;20.82;93.32;100558.36;2114639;84;31064;-65
2022/08/24 05:33:31;;;;;;;44.75;30.72;;;;;;;20.85;93.08;100551.80;2088204;84;34074;-66
2022/08/24 05:36:39;;;;;;;44.35;30.43;;;;;;;20.88;92.98;100551.50;2066673;86;29367;-66
2022/08/24 05:39:41;;;;;;;49.00;31.93;;;;;;;20.90;92.88;100551.74;2066831;86;27697;-66
2022/08/24 05:42:42;;;;;;;47.13;30.92;;;;;;;20.91;92.85;100554.83;2080722;84;29047;-67
2022/08/24 05:45:44;;;;;;;42.85;31.70;;;;;;;20.94;92.91;100551.80;2086796;84;30983;-65
2022/08/24 05:48:46;;;;;;;49.90;33.58;;;;;;;20.98;92.93;100555.63;2114914;84;33029;-66
2022/08/24 05:51:47;;;;;;;42.80;31.80;;;;;;;21.02;92.86;100555.20;2114967;84;29321;-65
2022/08/24 05:54:55;;;;;;;48.20;33.30;;;;;;;21.07;92.94;100551.57;2067842;84;27737;-66
2022/08/24 05:57:57;;;;;;;43.30;30.17;;;;;;;21.14;92.91;100554.59;2066821;86;28652;-66
2022/08/24 06:01:10;;;;;;;35.78;29.63;;;;;;;21.20;92.73;100562.72;2066518;86;31078;-66
2022/08/24 06:04:12;;;;;;;39.92;27.95;;;;;;;21.25;92.62;100562.69;2097905;84;32976;-66
2022/08/24 06:07:17;;;;;;;34.92;27.67;;;;;;;21.34;92.77;100558.74;2060953;85;30204;-65
2022/08/24 06:10:19;;;;;;;35.92;26.93;;;;;;;21.44;92.52;100556.04;2034966;87;27668;-66
2022/08/24 06:13:20;;;;;;;34.63;26.93;;;;;;;21.47;92.20;100558.48;2057853;86;28635;-66
2022/08/24 06:16:23;;;;;;;30.92;24.85;;;;;;;21.54;92.34;100559.63;2066598;85;31023;-64
2022/08/24 06:19:25;;;;;;;31.30;24.20;;;;;;;21.61;91.99;100564.05;2075182;85;33162;-65
2022/08/24 06:22:27;;;;;;;29.27;23.75;;;;;;;21.66;91.77;100574.03;2075183;85;29392;-65
2022/08/24 06:28:48;;;;;;;29.30;22.62;;;;;;;21.71;91.57;100573.12;2038602;85;28697;-65
2022/08/24 06:31:50;;;;;;;27.58;22.45;;;;;;;21.78;91.51;100574.25;2057702;86;31017;-65
2022/08/24 06:34:57;;;;;;;30.17;23.02;;;;;;;21.87;91.55;100577.14;2034509;87;33779;-65
2022/08/24 06:37:58;;;;;;;26.68;21.48;;;;;;;21.95;91.46;100589.06;2057699;86;30326;-65
2022/08/24 06:41:00;;;;;;;25.70;21.12;;;;;;;22.04;91.24;100584.61;2045148;85;28257;-66
2022/08/24 06:44:02;;;;;;;24.50;20.45;;;;;;;22.12;91.08;100576.55;2074718;85;29478;-66
2022/08/24 06:47:04;;;;;;;22.15;19.17;;;;;;;22.16;90.72;100582.59;2074869;85;32528;-65
2022/08/24 06:50:07;;;;;;;25.75;20.30;;;;;;;22.19;90.48;100580.07;2075116;85;33776;-66
2022/08/24 06:53:13;;;;;;;21.20;18.52;;;;;;;22.18;90.02;100581.92;2074986;85;30130;-67
2022/08/24 06:56:13;;;;;;;22.62;18.90;;;;;;;22.18;89.68;100584.65;2074249;85;27628;-66
2022/08/24 06:59:14;;;;;;;20.37;18.12;;;;;;;22.20;89.56;100579.91;2057675;86;28779;-66
2022/08/24 07:02:18;;;;;;;22.93;17.60;;;;;;;22.27;89.73;100581.06;2034470;87;31082;-65
2022/08/24 07:05:27;;;;;;;24.07;18.02;;;;;;;22.32;89.39;100584.72;2057638;86;32992;-67
2022/08/24 07:08:29;;;;;;;19.60;17.50;;;;;;;22.36;89.44;100580.70;2035270;86;29467;-66
2022/08/24 07:11:32;;;;;;;24.87;22.10;;;;;;;22.41;89.39;100581.61;2066780;86;27703;-69
2022/08/24 07:14:34;;;;;;;26.65;19.67;;;;;;;22.40;89.04;100580.77;2068000;84;28707;-67
2022/08/24 07:17:35;;;;;;;36.68;27.10;;;;;;;22.41;88.85;100583.86;2114725;84;31022;-67
2022/08/24 07:20:37;;;;;;;28.67;22.37;;;;;;;22.42;88.81;100579.28;2114808;84;32959;-67
2022/08/24 07:23:39;;;;;;;30.45;22.07;;;;;;;22.41;88.73;100575.67;2114871;84;29294;-67
2022/08/24 07:26:41;;;;;;;23.50;19.05;;;;;;;22.40;88.42;100577.16;2114602;84;27759;-66
2022/08/24 07:29:42;;;;;;;24.07;19.65;;;;;;;22.39;88.57;100571.34;2114807;84;29855;-66
2022/08/24 07:32:45;;;;;;;22.37;18.98;;;;;;;22.45;88.69;100574.89;2114786;84;31620;-67
2022/08/24 07:35:47;;;;;;;25.45;18.57;;;;;;;22.51;88.22;100567.45;2095830;84;33776;-67
2022/08/24 07:38:52;;;;;;;22.70;18.50;;;;;;;22.60;88.51;100573.41;2066515;84;30184;-67
2022/08/24 07:41:54;;;;;;;25.25;19.82;;;;;;;22.70;88.60;100573.88;2066677;86;28004;-66
2022/08/24 07:44:55;;;;;;;23.95;19.75;;;;;;;22.76;87.54;100574.66;2066680;86;29516;-67
2022/08/24 07:47:56;;;;;;;29.12;20.80;;;;;;;22.75;87.30;100589.32;2066558;86;31896;-67
2022/08/24 07:51:09;;;;;;;24.95;19.95;;;;;;;22.75;87.23;100586.59;2066544;86;33166;-67
2022/08/24 07:54:14;;;;;;;24.90;20.45;;;;;;;22.75;86.86;100598.88;2065698;86;30081;-68
2022/08/24 07:57:17;;;;;;;27.17;20.97;;;;;;;22.75;86.78;100601.61;2087906;84;27732;-67
2022/08/24 08:00:20;;;;;;;28.20;21.55;;;;;;;22.76;86.91;100610.16;2114792;84;28829;-67
2022/08/24 08:03:32;;;;;;;32.37;22.83;;;;;;;22.78;86.64;100610.88;2114889;84;31769;-66
2022/08/24 08:06:36;;;;;;;26.95;21.10;;;;;;;22.79;86.80;100609.87;2111815;83;33899;-66
2022/08/24 08:09:38;;;;;;;26.57;21.23;;;;;;;22.81;86.59;100611.95;2102017;84;28789;-67
2022/08/24 08:12:40;;;;;;;25.40;20.17;;;;;;;22.80;86.25;100610.23;2102603;84;27633;-68
2022/08/24 08:15:42;;;;;;;27.32;21.68;;;;;;;22.82;86.05;100613.68;2102626;84;29429;-66
2022/08/24 08:18:43;;;;;;;22.85;19.07;;;;;;;22.84;86.42;100610.78;2066114;84;31039;-67
2022/08/24 08:25:09;;;;;;;25.87;19.07;;;;;;;22.93;85.25;100617.23;2061307;86;29588;-69
2022/08/24 08:28:10;;;;;;;23.05;19.05;;;;;;;22.89;85.38;100623.50;2042277;86;27713;-66
2022/08/24 08:31:12;;;;;;;27.35;19.90;;;;;;;22.88;85.42;100625.36;2061507;86;29301;-66
2022/08/24 08:34:14;;;;;;;24.92;19.80;;;;;;;22.88;85.32;100623.99;2061555;85;31012;-66
2022/08/24 08:37:15;;;;;;;23.70;18.12;;;;;;;22.94;85.60;100624.42;2061327;86;32946;-66
2022/08/24 08:40:42;;;;;;;24.23;19.07;;;;;;;22.96;85.37;100630.08;2090128;84;29314;-67
2022/08/24 08:43:51;;;;;;;24.37;17.77;;;;;;;22.96;84.96;100628.71;2101579;84;27786;-66
2022/08/24 08:47:32;;;;;;;26.52;19.77;;;;;;;22.99;85.13;100625.69;2102131;84;29624;-67
2022/08/24 08:50:54;;;;;;;21.50;17.98;;;;;;;23.05;84.74;100629.20;2102850;84;31067;-66
2022/08/24 08:54:11;;;;;;;20.45;18.17;;;;;;;22.96;84.17;100645.11;2102773;84;32958;-66
2022/08/24 08:57:34;;;;;;;25.17;19.15;;;;;;;22.93;84.34;100647.28;2102963;84;30026;-67
2022/08/24 09:00:56;;;;;;;24.65;19.95;;;;;;;22.89;84.13;100657.66;2093829;84;27685;-68
2022/08/24 09:04:25;;;;;;;21.77;19.15;;;;;;;22.84;83.98;100657.23;2057167;86;28777;-68
2022/08/24 09:07:46;;;;;;;24.07;20.25;;;;;;;22.84;84.16;100658.59;2060335;85;31067;-66
2022/08/24 09:11:12;;;;;;;23.12;19.45;;;;;;;22.83;84.04;100659.11;2034325;87;33819;-67
2022/08/24 09:14:48;;;;;;;24.25;19.57;;;;;;;22.79;83.74;100660.41;2057874;86;29375;-67
2022/08/24 09:18:31;;;;;;;28.23;20.45;;;;;;;22.73;83.78;100657.77;2034506;87;27714;-67
2022/08/24 09:22:07;;;;;;;25.23;20.27;;;;;;;22.78;84.27;100665.52;2057728;86;28747;-68
2022/08/24 09:25:28;;;;;;;22.93;18.07;;;;;;;22.82;84.01;100664.22;2042806;85;31027;-67
2022/08/24 09:28:46;;;;;;;23.55;19.77;;;;;;;22.90;84.36;100666.21;2074784;85;33064;-67
2022/08/24 09:31:59;;;;;;;20.90;18.55;;;;;;;22.97;83.83;100663.75;2074928;85;30094;-65
2022/08/24 09:35:05;;;;;;;22.30;17.32;;;;;;;23.01;83.71;100664.66;2075365;85;27703;-67
2022/08/24 09:38:23;;;;;;;23.32;17.95;;;;;;;23.04;83.11;100666.22;2075015;85;28643;-66
2022/08/24 09:41:57;;;;;;;20.75;16.05;;;;;;;23.02;83.02;100666.38;2075098;85;31946;-67
2022/08/24 09:45:30;;;;;;;25.48;17.62;;;;;;;23.01;83.23;100666.02;2074897;85;33414;-66
2022/08/24 09:49:09;;;;;;;20.65;16.55;;;;;;;23.02;82.73;100666.87;2074845;85;29384;-66
2022/08/24 09:53:06;;;;;;;20.82;15.43;;;;;;;23.00;82.74;100673.02;2054458;85;27575;-66
2022/08/24 09:56:39;;;;;;;17.50;15.38;;;;;;;22.99;82.70;100680.34;2058132;86;28679;-68
2022/08/24 10:00:22;;;;;;;21.70;16.07;;;;;;;22.95;82.27;100678.05;2033452;87;31684;-67
2022/08/24 10:03:50;;;;;;;21.93;15.23;;;;;;;22.95;82.49;100676.17;2057506;86;33336;-65
2022/08/24 10:07:24;;;;;;;22.48;14.98;;;;;;;22.88;81.65;100680.00;2034491;87;29384;-67
2022/08/24 10:10:55;;;;;;;22.82;15.38;;;;;;;22.79;81.90;100680.89;1958607;90;27816;-67
2022/08/24 10:14:40;;;;;;;21.97;17.37;;;;;;;22.75;82.30;100680.30;1974722;90;29101;-65
2022/08/24 10:17:56;;;;;;;20.30;17.23;;;;;;;22.76;82.59;100673.84;1974371;90;32109;-65
2022/08/24 10:21:24;;;;;;;20.40;15.95;;;;;;;22.83;82.39;100679.60;1992614;88;33115;-66
2022/08/24 10:25:09;;;;;;;20.75;15.70;;;;;;;22.86;82.22;100679.28;1991170;88;29344;-65
2022/08/24 10:28:54;;;;;;;22.25;17.17;;;;;;;22.94;82.55;100677.70;1974756;90;27887;-65
2022/08/24 10:32:34;;;;;;;22.85;16.73;;;;;;;22.97;82.34;100673.31;1973929;88;28675;-64
2022/08/24 10:35:59;;;;;;;22.32;17.40;;;;;;;23.06;82.60;100674.64;1935739;90;30972;-67
2022/08/24 10:39:39;;;;;;;20.40;17.92;;;;;;;23.17;82.48;100670.84;1935687;91;32983;-67
2022/08/24 10:46:32;;;;;;;23.12;16.85;;;;;;;23.34;82.13;100666.99;1935379;92;27892;-67
2022/08/24 10:49:56;;;;;;;21.20;17.70;;;;;;;23.36;81.83;100673.18;1984459;88;28820;-67
2022/08/24 10:53:30;;;;;;;24.10;17.82;;;;;;;23.40;81.92;100676.50;2010897;88;31044;-66
2022/08/24 10:57:14;;;;;;;23.80;16.97;;;;;;;23.44;81.61;100681.99;2010755;88;33654;-67
2022/08/24 11:00:20;;;;;;;24.47;18.62;;;;;;;23.45;81.57;100677.76;2010764;88;29348;-66
2022/08/24 11:03:25;;;;;;;25.20;17.25;;;;;;;23.49;81.43;100676.45;2010718;88;27740;-66
2022/08/24 11:06:30;;;;;;;20.48;16.65;;;;;;;23.51;81.50;100668.08;2010993;88;32427;-66
2022/08/24 11:09:55;;;;;;;21.95;16.82;;;;;;;23.58;81.33;100664.23;2002841;87;31242;-67
2022/08/24 11:13:23;;;;;;;17.82;15.40;;;;;;;23.64;81.02;100674.58;2066122;84;33637;-65
2022/08/24 11:16:35;;;;;;;20.88;15.40;;;;;;;23.75;81.42;100670.25;2105076;84;29335;-67
2022/08/24 11:19:37;;;;;;;26.97;15.65;;;;;;;23.94;81.33;100673.35;2091957;84;28312;-67
2022/08/24 11:23:04;;;;;;;23.00;16.12;;;;;;;24.12;81.09;100677.52;2074935;85;28636;-66
2022/08/24 11:26:20;;;;;;;21.50;16.27;;;;;;;24.34;81.18;100671.20;2075039;85;31880;-66
2022/08/24 11:29:47;;;;;;;21.77;17.00;;;;;;;24.56;80.64;100676.73;2074954;85;33816;-67
2022/08/24 11:33:03;;;;;;;19.80;15.35;;;;;;;24.72;80.17;100676.01;2075124;85;29324;-67
2022/08/24 11:36:07;;;;;;;21.85;16.07;;;;;;;24.97;80.26;100674.83;2053668;85;27806;-67
2022/08/24 11:39:21;;;;;;;21.73;15.58;;;;;;;25.22;79.76;100672.73;2026318;85;28084;-67
2022/08/24 11:43:04;;;;;;;25.20;15.95;;;;;;;25.45;79.34;100681.28;2075108;85;31122;-66
2022/08/24 11:46:45;;;;;;;20.25;16.17;;;;;;;25.69;79.24;100683.75;2074832;85;33030;-66
2022/08/24 11:50:07;;;;;;;19.95;15.32;;;;;;;25.90;78.30;100688.78;2074762;85;29334;-66
2022/08/24 11:53:17;;;;;;;17.17;14.43;;;;;;;26.01;77.67;100691.73;2102168;84;27669;-66
2022/08/24 11:56:32;;;;;;;19.02;13.95;;;;;;;26.16;77.37;100683.21;2101737;84;28714;-66
2022/08/24 12:00:02;;;;;;;17.42;14.95;;;;;;;26.28;76.62;100681.53;2101738;84;31066;-66
2022/08/24 12:03:24;;;;;;;23.73;15.30;;;;;;;26.37;76.38;100685.49;2101912;84;33718;-65
2022/08/24 12:06:50;;;;;;;21.73;15.43;;;;;;;26.43;75.76;100683.06;2102241;84;29930;-67
2022/08/24 12:10:12;;;;;;;21.10;15.13;;;;;;;26.48;75.59;100689.77;2104807;83;27701;-67
2022/08/24 12:13:25;;;;;;;22.98;14.68;;;;;;;26.42;74.91;100685.47;2105721;83;28274;-66
2022/08/24 12:16:41;;;;;;;19.95;14.70;;;;;;;26.39;74.79;100685.31;2105702;84;31078;-66
2022/08/24 12:19:49;;;;;;;18.70;14.55;;;;;;;26.34;74.65;100693.19;2087059;84;33861;-66
2022/08/24 12:22:54;;;;;;;21.10;13.93;;;;;;;26.27;74.22;100699.04;2060839;86;29409;-66
2022/08/24 12:26:06;;;;;;;22.48;15.63;;;;;;;26.21;74.08;100691.81;2061040;86;27690;-66
2022/08/24 12:29:15;;;;;;;18.27;15.23;;;;;;;26.18;73.76;100696.80;2060796;86;28736;-66
2022/08/24 12:32:42;;;;;;;19.30;15.38;;;;;;;26.17;73.81;100698.66;2060997;86;31033;-66
2022/08/24 12:35:54;;;;;;;20.60;14.78;;;;;;;26.14;73.44;100703.15;2060803;86;32961;-67
2022/08/24 12:39:13;;;;;;;18.57;15.08;;;;;;;26.12;73.76;100699.70;2060914;86;29332;-66
2022/08/24 12:42:42;;;;;;;23.95;15.13;;;;;;;26.16;73.83;100691.45;2060905;86;27579;-66
2022/08/24 12:45:44;;;;;;;21.68;16.17;;;;;;;26.23;73.78;100692.50;2060911;86;29657;-66
2022/08/24 12:48:56;;;;;;;21.42;14.58;;;;;;;26.35;73.51;100690.30;2062351;84;31850;-66
2022/08/24 12:52:32;;;;;;;22.07;13.93;;;;;;;26.49;73.72;100683.77;2105448;84;33723;-66
2022/08/24 12:56:14;;;;;;;20.88;15.30;;;;;;;26.64;73.38;100688.92;2105176;84;29319;-67
2022/08/24 12:59:45;;;;;;;18.40;13.70;;;;;;;26.74;72.69;100690.12;2105661;84;27745;-67
2022/08/24 13:03:03;;;;;;;19.75;13.90;;;;;;;26.78;71.80;100687.38;2105742;84;28671;-67
2022/08/24 13:06:12;;;;;;;13.95;12.45;;;;;;;26.83;72.13;100678.63;2103733;84;31085;-67
2022/08/24 13:09:37;;;;;;;15.75;13.43;;;;;;;26.94;71.94;100680.16;2078701;84;33133;-67
2022/08/24 13:12:44;;;;;;;19.82;13.75;;;;;;;26.96;71.60;100673.98;2103103;84;30444;-64
2022/08/24 13:15:51;;;;;;;21.10;14.10;;;;;;;26.93;70.93;100674.32;2103020;84;27586;-65
2022/08/24 13:19:25;;;;;;;18.27;13.75;;;;;;;26.89;70.92;100666.07;2099661;84;28698;-66
2022/08/24 13:22:38;;;;;;;16.90;13.13;;;;;;;26.86;70.89;100669.16;2074148;84;32200;-66
2022/08/24 13:25:53;;;;;;;17.60;14.47;;;;;;;26.77;71.21;100666.91;2102771;84;33778;-66
2022/08/24 13:28:55;;;;;;;20.90;14.15;;;;;;;26.69;70.70;100667.28;2102044;84;30427;-66
2022/08/24 13:31:58;;;;;;;16.82;14.45;;;;;;;26.59;71.04;100670.70;2102870;84;27720;-66
2022/08/24 13:35:00;;;;;;;19.25;13.50;;;;;;;26.46;70.38;100670.37;2103017;84;29461;-66
2022/08/24 13:38:36;;;;;;;18.35;13.32;;;;;;;26.35;71.02;100677.05;2079123;84;30454;-65
2022/08/24 13:42:15;;;;;;;17.57;13.35;;;;;;;26.30;71.01;100672.08;2102862;84;32970;-65
2022/08/24 13:45:43;;;;;;;20.50;13.60;;;;;;;26.16;70.21;100675.50;2101719;84;30115;-65
2022/08/24 13:49:05;;;;;;;18.60;14.13;;;;;;;26.05;70.58;100676.65;2098402;84;27626;-65
2022/08/24 13:52:21;;;;;;;18.07;13.45;;;;;;;25.93;70.58;100678.35;2023963;87;29856;-75
2022/08/24 13:55:51;;;;;;;16.52;13.08;;;;;;;25.86;71.11;100667.69;2027385;86;31040;-63
2022/08/24 13:59:30;;;;;;;18.52;14.10;;;;;;;25.77;70.64;100677.78;2028147;87;33368;-64
2022/08/24 14:02:58;;;;;;;17.23;13.53;;;;;;;25.67;71.13;100677.08;2028329;87;30279;-63
2022/08/24 14:06:38;;;;;;;16.70;13.10;;;;;;;25.62;71.15;100667.09;2027762;87;27644;-63
2022/08/24 14:10:12;;;;;;;18.73;12.70;;;;;;;25.61;70.99;100661.27;2017902;87;28543;-65
2022/08/24 14:13:31;;;;;;;19.07;13.85;;;;;;;25.53;71.06;100657.98;2008118;88;31945;-64
2022/08/24 14:21:02;;;;;;;20.68;14.60;;;;;;;25.39;71.35;100658.58;2004668;88;29358;-64
2022/08/24 14:24:26;;;;;;;17.23;15.23;;;;;;;25.34;71.79;100653.59;2003621;88;27728;-64
2022/08/24 14:27:42;;;;;;;23.38;16.55;;;;;;;25.30;71.89;100656.30;2026663;86;29701;-63
2022/08/24 14:30:45;;;;;;;22.15;16.35;;;;;;;25.26;72.23;100653.53;2060156;86;31040;-64
2022/08/24 14:34:17;;;;;;;20.45;15.75;;;;;;;25.23;72.16;100649.77;2061078;86;33800;-64
2022/08/24 14:37:44;;;;;;;22.95;17.55;;;;;;;25.16;71.92;100647.68;2064416;85;29728;-64
2022/08/24 14:41:19;;;;;;;23.32;16.87;;;;;;;25.15;72.17;100647.33;2066413;85;27715;-64
2022/08/24 14:44:44;;;;;;;23.92;17.48;;;;;;;25.11;72.10;100643.19;2088089;85;29940;-62